createdAt,value
2022-10-10T00:00:06.472Z,65.20
2022-10-10T00:02:34.680Z,65.20
2022-10-10T00:05:01.542Z,65.20
2022-10-10T00:07:28.358Z,65.10
2022-10-10T00:09:55.167Z,65.10
2022-10-10T00:12:21.988Z,65.10
2022-10-10T00:14:48.807Z,65.10
2022-10-10T00:17:15.609Z,65.10
2022-10-10T00:19:42.487Z,65.10
2022-10-10T00:22:09.381Z,65.00
2022-10-10T00:24:36.203Z,65.00
2022-10-10T00:27:03.032Z,65.10
2022-10-10T00:29:29.899Z,65.10
2022-10-10T00:31:56.776Z,65.30
2022-10-10T00:34:23.632Z,65.20
2022-10-10T00:36:50.512Z,65.30
2022-10-10T00:39:17.441Z,65.30
2022-10-10T00:41:44.368Z,65.20
2022-10-10T00:44:13.436Z,65.00
2022-10-10T00:46:40.710Z,64.90
2022-10-10T00:49:11.192Z,64.70
2022-10-10T00:51:38.122Z,64.70
2022-10-10T00:54:08.059Z,64.80
2022-10-10T00:56:45.706Z,64.90
2022-10-10T00:59:12.746Z,65.00
2022-10-10T01:01:42.516Z,65.10
2022-10-10T01:04:28.244Z,65.20
2022-10-10T01:06:55.214Z,65.30
2022-10-10T01:09:22.326Z,65.40
2022-10-10T01:11:55.238Z,65.50
2022-10-10T01:14:25.212Z,65.60
2022-10-10T01:17:01.924Z,65.60
2022-10-10T01:19:47.263Z,65.80
2022-10-10T01:22:35.525Z,65.80
2022-10-10T01:25:21.320Z,65.50
2022-10-10T01:27:52.431Z,65.40
2022-10-10T01:30:23.527Z,65.50
2022-10-10T01:33:13.427Z,65.70
2022-10-10T01:35:46.399Z,65.80
2022-10-10T01:38:36.541Z,65.90
2022-10-10T01:41:06.010Z,65.90
2022-10-10T01:43:33.921Z,65.90
2022-10-10T01:46:08.929Z,65.90
2022-10-10T01:48:35.845Z,66.00
2022-10-10T01:51:11.943Z,65.90
2022-10-10T01:53:51.364Z,66.10
2022-10-10T01:56:18.159Z,66.20
2022-10-10T01:58:44.981Z,66.10
2022-10-10T02:01:11.829Z,66.10
2022-10-10T02:03:42.296Z,66.10
2022-10-10T02:06:41.801Z,66.20
2022-10-10T02:09:11.538Z,66.30
2022-10-10T02:11:39.506Z,66.30
2022-10-10T02:14:11.800Z,66.20
2022-10-10T02:16:41.549Z,66.30
2022-10-10T02:19:09.745Z,66.30
2022-10-10T02:21:37.485Z,66.40
2022-10-10T02:24:05.893Z,66.50
2022-10-10T02:26:33.529Z,66.50
2022-10-10T02:29:11.383Z,66.60
2022-10-10T02:31:48.064Z,66.50
2022-10-10T02:34:19.709Z,66.50
2022-10-10T02:36:51.620Z,66.60
2022-10-10T02:39:20.009Z,66.50
2022-10-10T02:41:47.338Z,66.60
2022-10-10T02:44:14.522Z,66.50
2022-10-10T02:46:41.539Z,66.60
2022-10-10T02:49:09.064Z,66.80
2022-10-10T02:51:35.898Z,66.90
2022-10-10T02:54:02.903Z,66.90
2022-10-10T02:56:29.744Z,66.90
2022-10-10T02:58:57.649Z,66.80
2022-10-10T03:01:24.846Z,66.80
2022-10-10T03:03:51.714Z,66.80
2022-10-10T03:06:18.567Z,66.80
2022-10-10T03:08:45.364Z,66.80
2022-10-10T03:11:12.333Z,66.70
2022-10-10T03:13:42.044Z,66.60
2022-10-10T03:16:08.897Z,66.50
2022-10-10T03:18:35.698Z,66.60
2022-10-10T03:21:03.201Z,66.80
2022-10-10T03:23:30.027Z,66.90
2022-10-10T03:25:56.953Z,67.00
2022-10-10T03:28:23.933Z,67.10
2022-10-10T03:30:51.008Z,67.10
2022-10-10T03:33:18.066Z,67.10
2022-10-10T03:35:48.128Z,67.00
2022-10-10T03:38:15.404Z,67.00
2022-10-10T03:40:43.071Z,67.00
2022-10-10T03:43:10.899Z,67.00
2022-10-10T03:45:37.886Z,67.20
2022-10-10T03:48:05.031Z,67.30
2022-10-10T03:50:32.170Z,67.50
2022-10-10T03:52:59.226Z,67.40
2022-10-10T03:55:26.060Z,67.60
2022-10-10T03:57:52.927Z,67.60
2022-10-10T04:00:19.854Z,67.60
2022-10-10T04:02:46.677Z,67.60
2022-10-10T04:05:13.534Z,67.50
2022-10-10T04:07:41.800Z,67.30
2022-10-10T04:10:09.810Z,67.30
2022-10-10T04:12:36.748Z,67.30
2022-10-10T04:15:03.741Z,67.40
2022-10-10T04:17:30.605Z,67.60
2022-10-10T04:19:57.412Z,67.60
2022-10-10T04:22:24.405Z,67.70
2022-10-10T04:24:51.257Z,67.70
2022-10-10T04:27:18.100Z,67.80
2022-10-10T04:29:44.942Z,67.70
2022-10-10T04:32:11.811Z,67.90
2022-10-10T04:34:38.628Z,68.00
2022-10-10T04:37:05.490Z,68.00
2022-10-10T04:39:32.355Z,68.10
2022-10-10T04:41:59.340Z,68.00
2022-10-10T04:44:26.283Z,67.90
2022-10-10T04:46:53.144Z,67.90
2022-10-10T04:49:20.170Z,67.90
2022-10-10T04:51:46.969Z,68.00
2022-10-10T04:54:13.959Z,68.00
2022-10-10T04:56:42.605Z,67.90
2022-10-10T04:59:10.315Z,68.10
2022-10-10T05:01:38.470Z,68.00
2022-10-10T05:04:05.632Z,68.10
2022-10-10T05:06:32.448Z,68.10
2022-10-10T05:08:59.370Z,68.30
2022-10-10T05:11:26.357Z,68.50
2022-10-10T05:13:53.213Z,68.70
2022-10-10T05:16:20.227Z,68.90
2022-10-10T05:18:47.203Z,68.90
2022-10-10T05:21:14.077Z,68.90
2022-10-10T05:23:41.881Z,68.80
2022-10-10T05:26:09.185Z,68.80
2022-10-10T05:28:36.701Z,68.60
2022-10-10T05:31:05.110Z,68.80
2022-10-10T05:33:32.381Z,68.90
2022-10-10T05:36:06.636Z,68.90
2022-10-10T05:38:33.983Z,69.00
2022-10-10T05:41:00.814Z,69.10
2022-10-10T05:43:27.838Z,69.00
2022-10-10T05:45:54.705Z,69.00
2022-10-10T05:48:21.866Z,68.90
2022-10-10T05:50:50.328Z,68.90
2022-10-10T05:53:18.082Z,68.90
2022-10-10T05:55:45.213Z,69.00
2022-10-10T05:58:13.643Z,69.10
2022-10-10T06:00:41.205Z,69.00
2022-10-10T06:03:08.798Z,68.90
2022-10-10T06:05:36.913Z,69.00
2022-10-10T06:08:09.264Z,69.10
2022-10-10T06:10:39.307Z,69.20
2022-10-10T06:13:06.101Z,69.20
2022-10-10T06:15:33.117Z,69.20
2022-10-10T06:18:00.071Z,69.00
2022-10-10T06:20:26.985Z,68.90
2022-10-10T06:22:54.069Z,68.80
2022-10-10T06:25:38.882Z,69.00
2022-10-10T06:28:07.223Z,69.10
2022-10-10T06:30:35.148Z,69.10
2022-10-10T06:33:02.117Z,69.10
2022-10-10T06:35:28.933Z,69.10
2022-10-10T06:37:55.762Z,69.10
2022-10-10T06:40:22.622Z,69.20
2022-10-10T06:42:49.721Z,69.00
2022-10-10T06:45:18.253Z,68.90
2022-10-10T06:47:45.080Z,68.80
2022-10-10T06:50:15.119Z,69.10
2022-10-10T06:52:46.837Z,69.00
2022-10-10T06:55:13.675Z,69.10
2022-10-10T06:57:40.518Z,69.20
2022-10-10T07:00:07.496Z,69.40
2022-10-10T07:02:34.339Z,69.70
2022-10-10T07:05:01.428Z,70.10
2022-10-10T07:07:28.249Z,70.50
2022-10-10T07:09:55.343Z,71.10
2022-10-10T07:12:22.122Z,71.30
2022-10-10T07:14:48.993Z,69.40
2022-10-10T07:17:15.780Z,67.70
2022-10-10T07:19:42.662Z,66.70
2022-10-10T07:22:09.496Z,66.40
2022-10-10T07:24:37.069Z,66.60
2022-10-10T07:27:08.662Z,66.50
2022-10-10T07:29:36.115Z,66.80
2022-10-10T07:32:03.033Z,66.90
2022-10-10T07:34:29.881Z,67.80
2022-10-10T07:36:56.653Z,70.40
2022-10-10T07:39:24.074Z,69.20
2022-10-10T07:41:51.945Z,66.10
2022-10-10T07:44:19.342Z,62.80
2022-10-10T07:46:46.830Z,60.10
2022-10-10T07:49:13.879Z,58.60
2022-10-10T07:51:40.687Z,58.20
2022-10-10T07:54:07.642Z,58.40
2022-10-10T07:56:34.446Z,59.00
2022-10-10T07:59:01.353Z,59.60
2022-10-10T08:01:29.307Z,60.40
2022-10-10T08:03:56.829Z,61.30
2022-10-10T08:06:24.074Z,62.00
2022-10-10T08:08:52.324Z,62.70
2022-10-10T08:11:20.938Z,63.40
2022-10-10T08:13:47.969Z,64.10
2022-10-10T08:16:14.993Z,64.50
2022-10-10T08:18:42.190Z,65.00
2022-10-10T08:21:10.545Z,65.40
2022-10-10T08:23:37.854Z,65.80
2022-10-10T08:26:07.196Z,66.30
2022-10-10T08:28:34.661Z,67.40
2022-10-10T08:31:12.114Z,66.90
2022-10-10T08:33:41.191Z,67.20
2022-10-10T08:36:09.280Z,67.60
2022-10-10T08:38:36.164Z,67.80
2022-10-10T08:41:29.441Z,68.10
2022-10-10T08:44:04.957Z,68.50
2022-10-10T08:46:39.517Z,69.30
2022-10-10T08:49:26.683Z,70.00
2022-10-10T08:52:02.400Z,70.60
2022-10-10T08:54:30.062Z,70.80
2022-10-10T08:56:59.710Z,70.60
2022-10-10T08:59:28.003Z,70.50
2022-10-10T09:02:17.691Z,70.60
2022-10-10T09:04:47.085Z,70.40
2022-10-10T09:07:26.167Z,70.10
2022-10-10T09:10:12.027Z,69.70
2022-10-10T09:12:44.978Z,69.00
2022-10-10T09:15:24.130Z,68.50
2022-10-10T09:17:50.955Z,68.40
2022-10-10T09:20:27.300Z,68.30
2022-10-10T09:22:58.158Z,68.60
2022-10-10T09:25:33.328Z,69.20
2022-10-10T09:28:19.360Z,69.10
2022-10-10T09:30:50.810Z,68.80
2022-10-10T09:33:17.992Z,68.70
2022-10-10T09:35:46.518Z,68.80
2022-10-10T09:38:25.680Z,68.90
2022-10-10T09:40:55.137Z,68.80
2022-10-10T09:43:22.662Z,68.70
2022-10-10T09:45:53.427Z,68.70
2022-10-10T09:48:22.292Z,68.60
2022-10-10T09:50:49.099Z,68.50
2022-10-10T09:53:16.769Z,68.60
2022-10-10T09:55:44.962Z,68.60
2022-10-10T09:58:20.898Z,68.60
2022-10-10T10:00:47.864Z,68.70
2022-10-10T10:03:14.726Z,68.70
2022-10-10T10:06:01.832Z,68.80
2022-10-10T10:08:30.592Z,68.80
2022-10-10T10:10:58.593Z,68.80
2022-10-10T10:13:31.077Z,68.80
2022-10-10T10:16:03.050Z,68.80
2022-10-10T10:18:30.378Z,68.80
2022-10-10T10:21:06.596Z,68.60
2022-10-10T10:23:33.421Z,68.60
2022-10-10T10:26:01.913Z,68.60
2022-10-10T10:28:29.078Z,68.60
2022-10-10T10:30:57.621Z,68.40
2022-10-10T10:33:43.084Z,68.30
2022-10-10T10:36:23.831Z,68.20
2022-10-10T10:39:00.779Z,68.10
2022-10-10T10:41:51.615Z,67.90
2022-10-10T10:44:18.517Z,67.70
2022-10-10T10:47:08.514Z,67.70
2022-10-10T10:49:58.908Z,67.50
2022-10-10T10:52:25.828Z,67.40
2022-10-10T10:54:59.956Z,67.10
2022-10-10T10:57:36.594Z,67.00
2022-10-10T11:00:25.769Z,67.00
2022-10-10T11:03:27.834Z,66.80
2022-10-10T11:06:13.639Z,66.60
2022-10-10T11:08:49.307Z,66.50
2022-10-10T11:11:19.256Z,66.30
2022-10-10T11:13:52.672Z,66.20
2022-10-10T11:16:46.792Z,66.10
2022-10-10T11:19:09.189Z,66.20
2022-10-10T11:21:38.877Z,66.00
2022-10-10T11:24:35.106Z,66.00
2022-10-10T11:27:04.696Z,65.60
2022-10-10T11:29:39.334Z,65.50
2022-10-10T11:32:13.350Z,65.50
2022-10-10T11:34:49.556Z,65.40
2022-10-10T11:37:19.034Z,65.20
2022-10-10T11:40:01.208Z,65.20
2022-10-10T11:42:48.009Z,65.20
2022-10-10T11:45:16.914Z,65.00
2022-10-10T11:47:46.896Z,64.90
2022-10-10T11:50:22.954Z,64.60
2022-10-10T11:52:53.357Z,64.40
2022-10-10T11:55:22.495Z,64.30
2022-10-10T11:58:04.935Z,64.20
2022-10-10T12:00:44.324Z,63.90
2022-10-10T12:03:11.303Z,63.70
2022-10-10T12:05:40.419Z,63.50
2022-10-10T12:08:22.689Z,63.30
2022-10-10T12:10:54.988Z,63.20
2022-10-10T12:13:21.843Z,62.90
2022-10-10T12:15:50.909Z,62.90
2022-10-10T12:18:30.804Z,62.80
2022-10-10T12:21:27.160Z,62.60
2022-10-10T12:24:04.967Z,62.40
2022-10-10T12:26:50.658Z,62.30
2022-10-10T12:29:37.539Z,62.10
2022-10-10T12:32:13.518Z,62.10
2022-10-10T12:34:40.460Z,62.00
2022-10-10T12:37:20.028Z,61.60
2022-10-10T12:40:22.657Z,61.40
2022-10-10T12:42:49.499Z,61.30
2022-10-10T12:45:31.587Z,61.10
2022-10-10T12:48:05.923Z,60.90
2022-10-10T12:50:41.620Z,60.80
2022-10-10T12:53:14.485Z,60.70
2022-10-10T12:55:41.324Z,60.70
2022-10-10T12:58:12.166Z,60.80
2022-10-10T13:00:45.070Z,61.10
2022-10-10T13:03:32.498Z,61.20
2022-10-10T13:06:04.706Z,60.90
2022-10-10T13:08:34.280Z,60.60
2022-10-10T13:11:14.433Z,60.20
2022-10-10T13:13:48.963Z,60.00
2022-10-10T13:16:18.264Z,60.00
2022-10-10T13:18:52.541Z,60.00
2022-10-10T13:21:45.866Z,60.30
2022-10-10T13:24:16.029Z,60.20
2022-10-10T13:26:48.071Z,60.20
2022-10-10T13:29:24.688Z,60.10
2022-10-10T13:31:52.956Z,59.90
2022-10-10T13:34:26.327Z,60.00
2022-10-10T13:36:58.324Z,60.00
2022-10-10T13:39:25.554Z,59.90
2022-10-10T13:41:53.108Z,60.10
2022-10-10T13:44:31.664Z,60.20
2022-10-10T13:46:58.597Z,59.70
2022-10-10T13:49:26.664Z,59.70
2022-10-10T13:52:05.373Z,59.60
2022-10-10T13:54:38.422Z,59.50
2022-10-10T13:57:11.611Z,59.10
2022-10-10T13:59:38.504Z,58.50
2022-10-10T14:02:10.075Z,58.30
2022-10-10T14:04:39.348Z,58.00
2022-10-10T14:07:20.488Z,57.80
2022-10-10T14:09:59.445Z,57.80
2022-10-10T14:12:31.899Z,57.50
2022-10-10T14:14:59.555Z,57.30
2022-10-10T14:17:26.683Z,57.10
2022-10-10T14:19:53.973Z,57.20
2022-10-10T14:22:21.234Z,56.80
2022-10-10T14:24:48.695Z,56.60
2022-10-10T14:27:23.476Z,56.40
2022-10-10T14:29:51.206Z,56.40
2022-10-10T14:32:18.446Z,56.40
2022-10-10T14:34:45.585Z,56.40
2022-10-10T14:37:23.907Z,56.70
2022-10-10T14:39:51.109Z,57.10
2022-10-10T14:42:18.659Z,57.30
2022-10-10T14:44:45.764Z,57.50
2022-10-10T14:47:19.954Z,57.60
2022-10-10T14:49:47.232Z,57.70
2022-10-10T14:52:14.329Z,57.70
2022-10-10T14:54:41.236Z,57.80
2022-10-10T14:57:10.163Z,58.00
2022-10-10T14:59:47.484Z,58.00
2022-10-10T15:02:17.349Z,57.90
2022-10-10T15:04:44.184Z,57.70
2022-10-10T15:07:13.791Z,57.40
2022-10-10T15:09:56.483Z,57.00
2022-10-10T15:12:29.070Z,56.60
2022-10-10T15:14:56.064Z,56.40
2022-10-10T15:17:24.623Z,56.40
2022-10-10T15:19:52.207Z,56.40
2022-10-10T15:22:19.379Z,56.50
2022-10-10T15:24:46.191Z,56.50
2022-10-10T15:27:13.361Z,56.80
2022-10-10T15:29:40.199Z,56.90
2022-10-10T15:32:07.138Z,56.90
2022-10-10T15:34:35.115Z,56.90
2022-10-10T15:37:02.139Z,56.60
2022-10-10T15:39:30.724Z,56.20
2022-10-10T15:41:57.818Z,55.90
2022-10-10T15:44:24.738Z,55.80
2022-10-10T15:46:52.061Z,55.80
2022-10-10T15:49:19.049Z,55.80
2022-10-10T15:51:46.796Z,55.60
2022-10-10T15:54:14.206Z,55.50
2022-10-10T15:56:41.366Z,55.60
2022-10-10T15:59:09.517Z,55.50
2022-10-10T16:01:36.778Z,55.30
2022-10-10T16:04:04.278Z,55.10
2022-10-10T16:06:31.168Z,54.90
2022-10-10T16:09:16.245Z,54.70
2022-10-10T16:11:43.577Z,54.60
2022-10-10T16:14:10.552Z,54.60
2022-10-10T16:16:37.437Z,54.70
2022-10-10T16:19:04.367Z,54.70
2022-10-10T16:21:33.616Z,54.80
2022-10-10T16:24:00.604Z,55.40
2022-10-10T16:26:29.277Z,54.90
2022-10-10T16:28:56.880Z,54.90
2022-10-10T16:31:25.135Z,55.00
2022-10-10T16:33:52.009Z,55.00
2022-10-10T16:36:20.423Z,55.00
2022-10-10T16:38:47.493Z,55.00
2022-10-10T16:41:35.264Z,55.10
2022-10-10T16:44:02.663Z,55.20
2022-10-10T16:46:29.606Z,55.30
2022-10-10T16:48:58.119Z,55.20
2022-10-10T16:51:27.826Z,55.20
2022-10-10T16:53:55.150Z,55.20
2022-10-10T16:56:22.293Z,55.30
2022-10-10T16:58:50.854Z,55.40
2022-10-10T17:01:19.825Z,55.30
2022-10-10T17:03:47.289Z,55.60
2022-10-10T17:06:16.409Z,55.50
2022-10-10T17:08:43.548Z,55.70
2022-10-10T17:11:10.442Z,55.80
2022-10-10T17:13:38.246Z,55.80
2022-10-10T17:16:34.123Z,55.80
2022-10-10T17:18:53.620Z,56.00
2022-10-10T17:21:21.396Z,56.20
2022-10-10T17:23:49.299Z,56.30
2022-10-10T17:26:17.322Z,56.30
2022-10-10T17:28:44.605Z,56.30
2022-10-10T17:31:15.526Z,56.30
2022-10-10T17:33:43.838Z,56.20
2022-10-10T17:36:15.435Z,56.40
2022-10-10T17:38:43.861Z,56.50
2022-10-10T17:41:11.604Z,56.70
2022-10-10T17:43:38.795Z,56.50
2022-10-10T17:46:32.729Z,56.60
2022-10-10T17:48:54.710Z,56.60
2022-10-10T17:51:24.753Z,56.70
2022-10-10T17:53:51.927Z,56.70
2022-10-10T17:56:20.182Z,56.80
2022-10-10T17:58:47.725Z,57.00
2022-10-10T18:01:15.823Z,57.00
2022-10-10T18:03:43.143Z,56.90
2022-10-10T18:06:12.415Z,57.00
2022-10-10T18:08:39.677Z,57.30
2022-10-10T18:11:13.491Z,57.30
2022-10-10T18:13:40.942Z,57.50
2022-10-10T18:16:09.655Z,57.70
2022-10-10T18:18:37.066Z,57.90
2022-10-10T18:21:05.343Z,58.20
2022-10-10T18:23:32.905Z,58.30
2022-10-10T18:26:01.130Z,58.30
2022-10-10T18:28:35.290Z,58.30
2022-10-10T18:31:13.271Z,58.30
2022-10-10T18:33:40.910Z,58.30
2022-10-10T18:36:11.230Z,58.40
2022-10-10T18:38:38.075Z,58.30
2022-10-10T18:41:06.417Z,58.30
2022-10-10T18:43:33.423Z,58.30
2022-10-10T18:46:01.005Z,58.20
2022-10-10T18:48:27.884Z,58.20
2022-10-10T18:51:10.165Z,58.20
2022-10-10T18:53:38.399Z,58.30
2022-10-10T18:56:10.626Z,58.30
2022-10-10T18:58:52.999Z,58.20
2022-10-10T19:01:29.087Z,58.20
2022-10-10T19:04:13.631Z,58.20
2022-10-10T19:06:47.719Z,58.20
2022-10-10T19:12:20.666Z,58.20
2022-10-10T19:14:57.836Z,58.40
2022-10-10T19:17:32.502Z,58.40
2022-10-10T19:20:13.519Z,58.50
2022-10-10T19:22:52.869Z,58.60
2022-10-10T19:25:30.710Z,58.80
2022-10-10T19:28:21.839Z,59.00
2022-10-10T19:30:52.183Z,59.10
2022-10-10T19:33:44.679Z,59.20
2022-10-10T19:36:21.955Z,59.10
2022-10-10T19:39:01.166Z,59.10
2022-10-10T19:41:28.744Z,59.10
2022-10-10T19:43:57.990Z,59.10
2022-10-10T19:46:26.910Z,59.10
2022-10-10T19:48:56.174Z,59.00
2022-10-10T19:51:23.054Z,59.10
2022-10-10T19:53:49.945Z,59.10
2022-10-10T19:56:24.526Z,59.10
2022-10-10T19:58:52.282Z,59.10
2022-10-10T20:01:19.626Z,59.20
2022-10-10T20:03:47.624Z,59.20
2022-10-10T20:06:15.649Z,59.20
2022-10-10T20:08:42.487Z,59.20
2022-10-10T20:11:09.955Z,59.20
2022-10-10T20:13:37.115Z,59.30
2022-10-10T20:16:05.431Z,59.30
2022-10-10T20:18:34.308Z,59.30
2022-10-10T20:21:06.399Z,59.30
2022-10-10T20:23:34.105Z,59.30
2022-10-10T20:26:04.535Z,59.30
2022-10-10T20:28:33.459Z,59.30
2022-10-10T20:31:00.436Z,59.30
2022-10-10T20:33:27.328Z,59.40
2022-10-10T20:36:02.249Z,59.30
2022-10-10T20:38:29.440Z,59.30
2022-10-10T20:40:56.339Z,59.50
2022-10-10T20:43:23.292Z,59.50
2022-10-10T20:45:50.263Z,59.60
2022-10-10T20:48:17.105Z,59.60
2022-10-10T20:50:43.977Z,59.60
2022-10-10T20:53:12.084Z,59.70
2022-10-10T20:55:38.906Z,59.70
2022-10-10T20:58:05.741Z,59.80
2022-10-10T21:00:32.573Z,59.80
2022-10-10T21:02:59.635Z,59.80
2022-10-10T21:05:26.451Z,59.80
2022-10-10T21:07:53.236Z,59.80
2022-10-10T21:10:20.029Z,59.80
2022-10-10T21:12:46.911Z,59.90
2022-10-10T21:15:13.670Z,59.90
2022-10-10T21:17:40.565Z,60.00
2022-10-10T21:20:07.751Z,60.10
2022-10-10T21:22:34.685Z,60.20
2022-10-10T21:25:01.555Z,60.30
2022-10-10T21:27:28.383Z,60.30
2022-10-10T21:29:55.689Z,61.00
2022-10-10T21:32:22.571Z,60.30
2022-10-10T21:34:52.018Z,60.20
2022-10-10T21:37:22.497Z,60.20
2022-10-10T21:39:49.323Z,60.20
2022-10-10T21:42:16.143Z,60.30
2022-10-10T21:44:43.059Z,60.30
2022-10-10T21:47:09.893Z,60.20
2022-10-10T21:49:37.158Z,60.30
2022-10-10T21:52:04.139Z,60.30
2022-10-10T21:54:30.979Z,60.30
2022-10-10T21:56:57.840Z,60.30
2022-10-10T21:59:26.509Z,60.30
2022-10-10T22:01:53.422Z,60.20
2022-10-10T22:04:20.308Z,60.30
2022-10-10T22:06:47.184Z,60.20
2022-10-10T22:09:14.005Z,61.00
2022-10-10T22:11:40.912Z,60.20
2022-10-10T22:14:07.744Z,60.30
2022-10-10T22:16:34.792Z,60.30
2022-10-10T22:19:02.029Z,60.20
2022-10-10T22:21:31.860Z,60.20
2022-10-10T22:24:01.359Z,60.20
2022-10-10T22:26:28.718Z,60.10
2022-10-10T22:28:55.604Z,59.80
2022-10-10T22:31:22.488Z,59.80
2022-10-10T22:33:49.463Z,59.70
2022-10-10T22:36:16.270Z,59.70
2022-10-10T22:38:43.882Z,59.60
2022-10-10T22:41:11.244Z,59.70
2022-10-10T22:43:38.199Z,59.80
2022-10-10T22:46:05.346Z,60.00
2022-10-10T22:48:32.491Z,60.20
2022-10-10T22:51:03.974Z,60.50
2022-10-10T22:53:31.090Z,60.60
2022-10-10T22:55:57.933Z,60.80
2022-10-10T22:58:25.205Z,60.90
2022-10-10T23:00:52.165Z,61.00
2022-10-10T23:03:19.114Z,61.00
2022-10-10T23:05:45.917Z,61.00
2022-10-10T23:08:12.860Z,60.70
2022-10-10T23:10:39.651Z,60.60
2022-10-10T23:13:06.489Z,60.60
2022-10-10T23:15:33.285Z,60.50
2022-10-10T23:18:00.279Z,60.20
2022-10-10T23:20:27.134Z,60.00
2022-10-10T23:22:54.487Z,60.00
2022-10-10T23:25:21.357Z,59.90
2022-10-10T23:27:48.274Z,59.80
2022-10-10T23:30:15.218Z,59.80
2022-10-10T23:32:42.037Z,59.90
2022-10-10T23:35:09.167Z,60.10
2022-10-10T23:37:36.099Z,60.10
2022-10-10T23:40:03.890Z,60.30
2022-10-10T23:42:30.786Z,60.20
2022-10-10T23:44:57.648Z,60.40
2022-10-10T23:47:24.561Z,60.40
2022-10-10T23:49:51.367Z,60.50
2022-10-10T23:52:18.229Z,60.40
2022-10-10T23:54:45.053Z,60.40
2022-10-10T23:57:11.967Z,60.30
2022-10-10T23:59:38.793Z,60.30
